Time;durP1;ratioP1;P1;durP2;ratioP2;P2;SDS_P1;SDS_P2;PMS_P1;PMS_P2;Temp;Humidity;BMP_temperature;BMP_pressure;BME280_temperature;BME280_humidity;BME280_pressure;Samples;Min_cycle;Max_cycle;Signal;HPM_P1;HPM_P2
2023/03/12 00:01:58;;;;;;;11.45;5.68;;;;;;;-0.56;100.00;100946.16;10472980;28;20148;-71
2023/03/12 00:06:59;;;;;;;9.68;5.93;;;;;;;-0.58;100.00;100941.63;10486382;28;20056;-71
2023/03/12 00:12:00;;;;;;;11.75;7.57;;;;;;;-0.58;100.00;100939.97;10459278;28;20068;-71
2023/03/12 00:17:00;;;;;;;9.38;6.75;;;;;;;-0.64;100.00;100942.88;10451235;28;20440;-71
2023/03/12 00:22:01;;;;;;;8.85;5.70;;;;;;;-0.63;100.00;100941.22;10458905;28;20080;-71
2023/03/12 00:27:01;;;;;;;10.80;6.65;;;;;;;-0.64;100.00;100937.72;10441594;28;20374;-71
2023/03/12 00:32:02;;;;;;;9.10;5.45;;;;;;;-0.62;100.00;100931.06;10465943;28;20120;-71
2023/03/12 00:37:02;;;;;;;7.65;5.28;;;;;;;-0.52;100.00;100925.13;10480550;28;20047;-71
2023/03/12 00:42:03;;;;;;;6.97;5.75;;;;;;;-0.43;100.00;100924.16;10462501;28;20041;-71
2023/03/12 00:47:04;;;;;;;14.00;6.75;;;;;;;-0.32;100.00;100908.94;10439858;28;20378;-71
2023/03/12 00:52:04;;;;;;;9.23;4.45;;;;;;;-0.12;100.00;100907.28;10465317;28;20040;-71
2023/03/12 00:57:05;;;;;;;9.95;5.75;;;;;;;-0.11;100.00;100898.81;10483108;28;20120;-71
2023/03/12 01:02:06;;;;;;;9.70;6.15;;;;;;;0.12;100.00;100889.69;10482326;28;20059;-71
2023/03/12 01:07:07;;;;;;;11.10;4.95;;;;;;;0.20;100.00;100867.22;10462400;28;20041;-71
2023/03/12 01:12:07;;;;;;;8.63;4.22;;;;;;;0.21;100.00;100859.63;10449019;28;20491;-71
2023/03/12 01:17:08;;;;;;;12.60;5.07;;;;;;;0.17;100.00;100869.53;10483584;28;20043;-71
2023/03/12 01:22:08;;;;;;;8.23;4.82;;;;;;;0.27;100.00;100865.31;10463536;28;20102;-71
2023/03/12 01:27:09;;;;;;;8.00;3.95;;;;;;;0.22;100.00;100866.56;10464916;28;20072;-71
2023/03/12 01:32:09;;;;;;;10.55;5.10;;;;;;;0.14;100.00;100857.25;10481615;28;20131;-72
2023/03/12 01:37:10;;;;;;;11.57;6.25;;;;;;;0.10;100.00;100863.81;10484311;28;20121;-70
2023/03/12 01:42:10;;;;;;;10.30;4.40;;;;;;;0.10;100.00;100855.19;10474099;28;20051;-70
2023/03/12 01:47:11;;;;;;;9.23;5.22;;;;;;;0.05;100.00;100846.16;10460476;28;20116;-71
2023/03/12 01:52:13;;;;;;;7.55;4.20;;;;;;;0.04;100.00;100839.19;10452144;28;20033;-71
2023/03/12 01:57:16;;;;;;;9.25;5.00;;;;;;;-0.03;100.00;100838.66;10479065;28;20048;-70
2023/03/12 02:02:18;;;;;;;7.85;5.80;;;;;;;0.00;100.00;100848.31;10479882;28;20553;-71
2023/03/12 02:07:19;;;;;;;10.27;3.95;;;;;;;-0.14;100.00;100838.47;10472086;28;20037;-71
2023/03/12 02:12:19;;;;;;;8.23;4.85;;;;;;;-0.06;100.00;100833.22;10469345;28;20551;-71
2023/03/12 02:17:20;;;;;;;10.95;5.60;;;;;;;0.03;100.00;100825.44;10470765;28;20045;-71
2023/03/12 02:22:21;;;;;;;10.65;5.45;;;;;;;0.03;100.00;100819.38;10466870;28;20536;-71
2023/03/12 02:27:21;;;;;;;9.50;4.45;;;;;;;0.09;100.00;100819.91;10485378;28;20090;-71
2023/03/12 02:32:32;;;;;;;8.65;6.38;;;;;;;0.00;100.00;100812.31;10450683;28;20136;-70
2023/03/12 02:37:32;;;;;;;12.38;5.25;;;;;;;0.01;100.00;100792.59;10487899;28;20036;-71
2023/03/12 02:42:33;;;;;;;8.70;5.13;;;;;;;0.12;100.00;100786.72;10450087;28;20071;-71
2023/03/12 02:47:33;;;;;;;14.43;6.85;;;;;;;0.11;100.00;100788.41;10448247;28;20456;-71
2023/03/12 02:52:36;;;;;;;9.82;5.40;;;;;;;0.11;100.00;100779.78;10467930;28;20067;-70
2023/03/12 02:57:36;;;;;;;11.15;5.45;;;;;;;0.14;100.00;100773.25;10446739;28;20040;-70
2023/03/12 03:02:38;;;;;;;10.65;5.15;;;;;;;0.14;100.00;100783.53;10460010;28;20574;-71
2023/03/12 03:07:38;;;;;;;13.80;5.25;;;;;;;0.17;100.00;100785.47;10505718;28;20040;-71
2023/03/12 03:12:39;;;;;;;9.90;4.93;;;;;;;0.08;100.00;100785.56;10446727;28;20385;-71
2023/03/12 03:17:39;;;;;;;13.95;5.78;;;;;;;0.11;100.00;100791.00;10446861;28;20056;-70
2023/03/12 03:22:39;;;;;;;7.50;5.80;;;;;;;0.13;100.00;100796.25;10448927;28;20135;-71
2023/03/12 03:27:40;;;;;;;11.02;5.53;;;;;;;0.25;100.00;100792.19;10484317;28;20519;-71
2023/03/12 03:32:41;;;;;;;6.63;4.95;;;;;;;0.29;100.00;100781.38;10477693;28;20045;-71
2023/03/12 03:37:41;;;;;;;8.23;5.07;;;;;;;0.30;100.00;100787.47;10445707;28;20048;-71
2023/03/12 03:42:41;;;;;;;8.88;6.00;;;;;;;0.31;100.00;100780.63;10450655;28;20459;-71
2023/03/12 03:47:42;;;;;;;12.20;5.50;;;;;;;0.31;100.00;100781.53;10444158;28;20072;-71
2023/03/12 03:52:42;;;;;;;6.57;4.07;;;;;;;0.37;100.00;100779.50;10465624;28;20077;-71
2023/03/12 03:57:43;;;;;;;14.57;6.72;;;;;;;0.37;100.00;100776.94;10475709;28;20440;-71
2023/03/12 04:02:43;;;;;;;8.20;5.57;;;;;;;0.29;100.00;100762.47;10486494;28;20108;-71
2023/03/12 04:07:44;;;;;;;17.02;6.35;;;;;;;0.23;100.00;100761.94;10451503;28;20052;-71
2023/03/12 04:12:44;;;;;;;10.48;6.18;;;;;;;0.23;100.00;100761.94;10444728;28;20068;-71
2023/03/12 04:17:45;;;;;;;9.35;5.50;;;;;;;0.34;100.00;100762.88;10475669;28;20063;-71
2023/03/12 04:22:45;;;;;;;11.13;4.88;;;;;;;0.29;100.00;100736.75;10444826;28;20175;-72
2023/03/12 04:27:46;;;;;;;10.55;4.60;;;;;;;0.25;100.00;100732.97;10466923;28;20119;-71
2023/03/12 04:32:46;;;;;;;10.15;6.25;;;;;;;0.37;100.00;100724.50;10469838;28;20120;-74
2023/03/12 04:37:47;;;;;;;19.05;6.25;;;;;;;0.38;100.00;100704.06;10475479;28;20131;-71
2023/03/12 04:42:47;;;;;;;6.78;4.70;;;;;;;0.42;100.00;100697.47;10483616;28;20120;-70
2023/03/12 04:47:48;;;;;;;13.13;6.60;;;;;;;0.48;100.00;100687.69;10482687;28;20063;-71
2023/03/12 04:52:48;;;;;;;16.55;7.70;;;;;;;0.56;100.00;100686.69;10458951;28;20056;-71
2023/03/12 04:57:49;;;;;;;17.70;5.57;;;;;;;0.67;100.00;100690.19;10453675;28;20403;-71
2023/03/12 05:02:49;;;;;;;11.88;5.35;;;;;;;0.78;100.00;100698.78;10454340;28;20137;-71
2023/03/12 05:07:50;;;;;;;13.18;4.50;;;;;;;0.80;100.00;100678.34;10474341;28;20472;-71
2023/03/12 05:12:50;;;;;;;7.93;4.35;;;;;;;0.77;100.00;100665.19;10449886;28;20131;-70
2023/03/12 05:17:51;;;;;;;16.77;5.28;;;;;;;0.86;100.00;100659.13;10472120;28;20057;-71
2023/03/12 05:22:51;;;;;;;6.03;3.20;;;;;;;0.94;100.00;100651.13;10472638;28;20064;-72
2023/03/12 05:27:52;;;;;;;6.40;4.85;;;;;;;1.05;100.00;100646.88;10450698;28;20053;-71
2023/03/12 05:32:52;;;;;;;8.63;3.70;;;;;;;1.12;100.00;100644.00;10465523;28;20036;-71
2023/03/12 05:37:53;;;;;;;9.70;3.85;;;;;;;1.27;100.00;100645.25;10460071;28;20133;-71
2023/03/12 05:42:53;;;;;;;6.38;3.88;;;;;;;1.31;100.00;100629.25;10460383;28;20072;-71
2023/03/12 05:47:54;;;;;;;9.05;3.60;;;;;;;1.37;100.00;100623.69;10477889;28;20174;-71
2023/03/12 05:52:54;;;;;;;7.53;4.70;;;;;;;1.35;100.00;100622.66;10488343;28;20056;-71
2023/03/12 05:57:55;;;;;;;8.13;4.63;;;;;;;1.34;100.00;100620.84;10451296;28;20128;-71
2023/03/12 06:02:56;;;;;;;10.13;4.80;;;;;;;1.32;100.00;100630.16;10434219;28;20531;-70
2023/03/12 06:07:57;;;;;;;8.90;3.85;;;;;;;1.31;100.00;100620.59;10452582;28;20033;-70
2023/03/12 06:12:57;;;;;;;10.55;4.88;;;;;;;1.34;100.00;100619.97;10476782;28;20866;-71
2023/03/12 06:17:58;;;;;;;10.35;4.97;;;;;;;1.40;100.00;100631.66;10427431;28;20093;-71
2023/03/12 06:22:58;;;;;;;9.48;3.42;;;;;;;1.40;100.00;100613.63;10448260;28;20119;-72
2023/03/12 06:27:59;;;;;;;15.13;5.13;;;;;;;1.44;100.00;100628.56;10451643;28;20386;-72
2023/03/12 06:32:59;;;;;;;10.48;4.35;;;;;;;1.47;100.00;100630.50;10448571;28;20056;-72
2023/03/12 06:38:00;;;;;;;10.38;3.40;;;;;;;1.57;100.00;100632.13;10445968;28;20041;-73
2023/03/12 06:43:00;;;;;;;7.95;3.85;;;;;;;1.68;100.00;100620.09;10426055;28;20123;-73
2023/03/12 06:48:00;;;;;;;8.13;3.67;;;;;;;1.75;100.00;100618.09;10432970;28;20131;-76
2023/03/12 06:53:01;;;;;;;7.25;4.50;;;;;;;1.76;100.00;100617.31;10469147;28;20167;-71
2023/03/12 06:58:02;;;;;;;9.45;5.38;;;;;;;1.79;100.00;100614.09;10475479;28;20087;-72
2023/03/12 07:03:03;;;;;;;6.57;4.45;;;;;;;1.74;100.00;100603.41;10467206;28;20404;-72
2023/03/12 07:08:03;;;;;;;9.90;4.30;;;;;;;1.76;100.00;100603.53;10424195;28;20121;-72
2023/03/12 07:13:04;;;;;;;6.63;4.70;;;;;;;1.86;100.00;100603.47;10448082;28;20041;-72
2023/03/12 07:18:09;;;;;;;9.93;4.43;;;;;;;1.94;100.00;100604.06;10454732;28;20147;-72
2023/03/12 07:23:09;;;;;;;13.10;4.93;;;;;;;2.03;100.00;100606.47;10468199;28;20052;-72
2023/03/12 07:28:10;;;;;;;10.30;4.90;;;;;;;2.10;100.00;100603.59;10479510;28;20392;-72
2023/03/12 07:33:11;;;;;;;9.27;5.00;;;;;;;2.10;100.00;100610.41;10453966;28;20033;-72
2023/03/12 07:38:11;;;;;;;15.38;7.07;;;;;;;2.19;100.00;100613.72;10421528;28;20103;-72
2023/03/12 07:43:12;;;;;;;13.27;8.20;;;;;;;2.30;100.00;100622.28;10495367;28;20045;-72
2023/03/12 07:48:12;;;;;;;16.45;6.70;;;;;;;2.33;100.00;100612.19;10454083;28;20157;-71
2023/03/12 07:53:13;;;;;;;10.73;5.43;;;;;;;2.30;100.00;100614.53;10445874;28;20124;-73
2023/03/12 07:58:14;;;;;;;15.48;6.60;;;;;;;2.33;100.00;100618.25;10451562;28;20044;-72
2023/03/12 08:03:15;;;;;;;9.23;5.00;;;;;;;2.38;100.00;100622.88;10482339;28;20098;-74
2023/03/12 08:08:16;;;;;;;13.18;7.57;;;;;;;2.37;100.00;100623.66;10473244;28;20222;-71
2023/03/12 08:13:16;;;;;;;11.50;7.55;;;;;;;2.34;100.00;100619.16;10444339;28;20144;-72
2023/03/12 08:18:17;;;;;;;9.95;6.28;;;;;;;2.33;100.00;100618.25;10443412;28;20190;-72
2023/03/12 08:23:18;;;;;;;11.43;7.35;;;;;;;2.34;100.00;100617.47;10478563;28;20078;-72
2023/03/12 08:28:19;;;;;;;20.10;7.93;;;;;;;2.48;100.00;100618.53;10436271;28;20077;-71
2023/03/12 08:33:20;;;;;;;15.57;8.93;;;;;;;2.59;100.00;100619.34;10441495;28;20048;-71
2023/03/12 08:38:20;;;;;;;14.00;8.05;;;;;;;2.68;100.00;100624.31;10439884;28;20037;-72
2023/03/12 08:43:21;;;;;;;16.30;10.10;;;;;;;2.83;100.00;100615.91;10424282;28;20082;-72
2023/03/12 08:48:21;;;;;;;13.23;10.18;;;;;;;3.01;100.00;100616.34;10449090;28;20040;-72
2023/03/12 08:53:22;;;;;;;14.77;9.55;;;;;;;3.31;100.00;100616.81;10468302;28;20037;-72
2023/03/12 08:58:26;;;;;;;16.43;10.70;;;;;;;3.55;100.00;100622.88;10442017;28;20044;-71
2023/03/12 09:03:28;;;;;;;16.95;11.00;;;;;;;3.79;100.00;100628.00;10440178;28;20044;-72
2023/03/12 09:08:29;;;;;;;14.18;10.63;;;;;;;3.87;100.00;100619.09;10469967;28;20543;-73
2023/03/12 09:13:30;;;;;;;18.27;10.00;;;;;;;4.03;100.00;100600.34;10455724;28;20094;-71
2023/03/12 09:18:30;;;;;;;16.85;9.27;;;;;;;4.22;100.00;100628.44;10451385;28;20131;-72
2023/03/12 09:23:31;;;;;;;16.35;12.55;;;;;;;4.40;100.00;100635.66;10435344;28;20043;-72
2023/03/12 09:28:31;;;;;;;16.55;11.13;;;;;;;4.69;100.00;100634.16;10406613;28;20042;-72
2023/03/12 09:33:35;;;;;;;19.27;13.10;;;;;;;5.02;100.00;100634.63;10430940;28;20120;-72
2023/03/12 09:38:36;;;;;;;19.10;12.43;;;;;;;5.23;100.00;100635.13;10441372;28;20579;-72
2023/03/12 09:44:35;;;;;;;14.90;9.90;;;;;;;5.47;100.00;100632.31;10459888;28;21666;-71
2023/03/12 09:49:41;;;;;;;24.40;15.43;;;;;;;5.69;100.00;100637.22;10294385;28;20936;-72
2023/03/12 09:55:04;;;;;;;24.08;15.20;;;;;;;5.79;100.00;100641.28;10416327;28;20055;-72
2023/03/12 10:00:07;;;;;;;26.75;17.48;;;;;;;6.03;100.00;100651.44;10419201;28;20547;-72
2023/03/12 10:05:12;;;;;;;28.00;19.80;;;;;;;6.12;100.00;100645.94;10420743;28;20041;-72
2023/03/12 10:10:25;;;;;;;28.48;17.52;;;;;;;6.40;100.00;100656.31;10453724;28;20044;-70
2023/03/12 10:16:02;;;;;;;25.65;17.42;;;;;;;6.51;100.00;100656.97;10442502;28;20038;-71
2023/03/12 10:21:14;;;;;;;30.95;18.08;;;;;;;6.65;100.00;100673.41;10384311;28;20128;-72
2023/03/12 10:26:33;;;;;;;32.92;20.35;;;;;;;6.94;100.00;100673.38;10477798;28;20041;-72
2023/03/12 10:31:42;;;;;;;30.52;19.10;;;;;;;7.08;100.00;100675.06;10466333;28;20468;-72
2023/03/12 10:36:43;;;;;;;36.20;19.55;;;;;;;7.31;100.00;100683.31;10488004;28;20048;-71
2023/03/12 10:41:45;;;;;;;33.70;19.63;;;;;;;7.41;100.00;100683.03;10470959;28;20433;-71
2023/03/12 10:46:58;;;;;;;40.42;18.30;;;;;;;7.41;100.00;100684.75;10456208;28;20033;-72
2023/03/12 10:52:04;;;;;;;30.05;16.35;;;;;;;7.36;100.00;100684.50;10444629;28;20033;-72
2023/03/12 10:57:06;;;;;;;33.40;18.40;;;;;;;7.58;100.00;100681.38;10445945;28;20045;-72
2023/03/12 11:02:34;;;;;;;35.37;18.63;;;;;;;7.87;100.00;100663.88;10403974;28;20116;-72
2023/03/12 11:07:35;;;;;;;33.25;15.80;;;;;;;8.12;100.00;100661.75;10429646;28;20492;-71
2023/03/12 11:12:36;;;;;;;41.20;17.08;;;;;;;8.28;100.00;100658.22;10445135;28;20055;-72
2023/03/12 11:17:37;;;;;;;24.50;12.93;;;;;;;8.56;100.00;100665.84;10480164;28;20025;-72
2023/03/12 11:22:37;;;;;;;26.50;16.30;;;;;;;8.51;100.00;100670.81;10458102;28;20267;-72
2023/03/12 11:27:43;;;;;;;48.42;17.02;;;;;;;8.48;100.00;100681.06;10444861;28;20128;-72
2023/03/12 11:32:48;;;;;;;34.47;16.48;;;;;;;8.70;100.00;100674.38;10443438;28;20044;-72
2023/03/12 11:38:20;;;;;;;38.15;16.40;;;;;;;8.91;100.00;100678.94;10441988;28;20044;-72
2023/03/12 11:43:43;;;;;;;34.83;16.63;;;;;;;8.93;100.00;100674.69;10446435;28;20037;-72
2023/03/12 11:49:21;;;;;;;35.97;15.40;;;;;;;9.06;100.00;100674.50;10457324;28;20049;-72
2023/03/12 11:55:02;;;;;;;40.20;13.30;;;;;;;9.57;100.00;100662.16;10435720;28;20504;-72
2023/03/12 12:00:21;;;;;;;32.85;14.02;;;;;;;10.66;100.00;100662.81;10434698;28;20508;-73
2023/03/12 12:05:33;;;;;;;26.58;10.90;;;;;;;12.44;100.00;100625.34;10443968;28;20133;-72
2023/03/12 12:11:12;;;;;;;22.73;9.50;;;;;;;12.28;100.00;100629.13;10467548;28;20076;-72
2023/03/12 12:16:18;;;;;;;29.35;9.95;;;;;;;11.33;100.00;100621.09;10427507;28;20094;-72
2023/03/12 12:21:31;;;;;;;21.98;10.85;;;;;;;11.02;100.00;100621.63;10481358;28;20165;-72
2023/03/12 12:26:40;;;;;;;19.70;8.27;;;;;;;10.62;100.00;100614.69;10403347;28;20044;-72
2023/03/12 12:31:56;;;;;;;20.17;9.23;;;;;;;10.46;100.00;100618.34;10433732;28;20079;-72
2023/03/12 12:37:19;;;;;;;34.80;11.02;;;;;;;10.58;100.00;100618.00;10430795;28;20045;-73
2023/03/12 12:42:23;;;;;;;26.00;10.60;;;;;;;11.12;100.00;100599.31;10400331;28;20068;-73
2023/03/12 12:47:33;;;;;;;30.85;10.75;;;;;;;10.96;100.00;100595.19;10413374;28;20044;-72
2023/03/12 12:52:34;;;;;;;15.93;8.45;;;;;;;11.47;100.00;100588.47;10436662;28;20056;-72
2023/03/12 12:57:43;;;;;;;16.40;8.43;;;;;;;11.95;100.00;100574.56;10432273;28;20131;-73
2023/03/12 13:02:44;;;;;;;28.25;8.43;;;;;;;12.41;100.00;100574.47;10389599;28;20392;-72
2023/03/12 13:07:44;;;;;;;33.83;8.40;;;;;;;12.21;100.00;100564.16;10429683;28;20029;-72
2023/03/12 13:12:52;;;;;;;20.52;7.07;;;;;;;11.74;100.00;100562.41;10424348;28;20064;-72
2023/03/12 13:18:03;;;;;;;31.20;14.75;;;;;;;11.50;100.00;100562.38;10477763;28;20124;-72
2023/03/12 13:23:18;;;;;;;24.58;8.48;;;;;;;11.24;100.00;100567.50;10476180;28;20056;-72
2023/03/12 13:28:25;;;;;;;19.75;7.82;;;;;;;11.83;100.00;100542.63;10457705;28;20034;-72
2023/03/12 13:33:45;;;;;;;26.65;10.60;;;;;;;11.97;100.00;100541.41;10431796;28;20073;-73
2023/03/12 13:39:26;;;;;;;28.17;8.95;;;;;;;12.10;100.00;100544.50;10454944;28;20112;-72
2023/03/12 13:44:26;;;;;;;30.75;9.18;;;;;;;11.87;100.00;100548.06;10416792;28;20044;-72
2023/03/12 13:49:40;;;;;;;18.27;7.13;;;;;;;11.46;100.00;100529.03;10390262;28;20045;-71
2023/03/12 13:54:42;;;;;;;23.70;7.85;;;;;;;10.76;100.00;100525.38;10446625;28;20442;-72
2023/03/12 13:59:44;;;;;;;20.40;7.45;;;;;;;10.52;100.00;100539.22;10469007;28;20081;-72
2023/03/12 14:04:44;;;;;;;28.98;10.23;;;;;;;10.60;100.00;100531.69;10478502;28;20040;-73
2023/03/12 14:10:03;;;;;;;22.02;6.40;;;;;;;11.04;100.00;100510.78;10435738;28;20139;-72
2023/03/12 14:15:25;;;;;;;22.05;8.93;;;;;;;11.28;100.00;100511.78;10452808;28;20118;-72
2023/03/12 14:20:26;;;;;;;22.35;9.93;;;;;;;11.36;100.00;100530.38;10428275;28;20049;-72
2023/03/12 14:25:40;;;;;;;27.25;9.43;;;;;;;11.18;100.00;100521.81;10442991;28;20041;-72
2023/03/12 14:30:50;;;;;;;18.80;7.43;;;;;;;11.02;100.00;100544.75;10446022;28;20063;-72
2023/03/12 14:35:54;;;;;;;23.35;6.50;;;;;;;10.67;100.00;100542.50;10447673;28;20049;-72
2023/03/12 14:41:01;;;;;;;22.95;8.20;;;;;;;10.67;100.00;100565.13;10424787;28;20477;-72
2023/03/12 14:46:03;;;;;;;21.67;8.40;;;;;;;10.73;100.00;100565.41;10412646;28;20040;-72
2023/03/12 14:51:05;;;;;;;29.45;8.65;;;;;;;10.67;100.00;100558.19;10445618;28;20385;-72
2023/03/12 14:56:14;;;;;;;34.43;8.50;;;;;;;10.61;100.00;100565.78;10443096;28;20401;-73
2023/03/12 15:01:26;;;;;;;19.98;8.40;;;;;;;10.77;100.00;100571.66;10426754;28;20038;-72
2023/03/12 15:06:35;;;;;;;26.77;8.90;;;;;;;10.78;100.00;100581.31;10412903;28;20041;-72
2023/03/12 15:11:38;;;;;;;28.77;9.68;;;;;;;10.77;100.00;100563.81;10434485;28;20525;-72
2023/03/12 15:16:39;;;;;;;23.38;8.82;;;;;;;10.64;100.00;100555.44;10425931;28;20488;-72
2023/03/12 15:21:40;;;;;;;32.40;7.20;;;;;;;10.54;100.00;100569.84;10424717;28;20048;-72
2023/03/12 15:26:42;;;;;;;31.02;8.38;;;;;;;10.61;100.00;100563.16;10436359;28;20112;-72
2023/03/12 15:31:43;;;;;;;23.63;8.27;;;;;;;10.51;100.00;100581.91;10413483;28;20477;-72
2023/03/12 15:36:47;;;;;;;22.08;10.15;;;;;;;10.68;100.00;100574.78;10420080;28;20802;-72
2023/03/12 15:41:48;;;;;;;35.45;12.32;;;;;;;10.64;100.00;100580.72;10441107;28;20045;-72
2023/03/12 15:47:04;;;;;;;19.98;6.93;;;;;;;10.66;100.00;100589.53;10443733;28;20033;-72
2023/03/12 15:52:17;;;;;;;19.92;6.38;;;;;;;10.52;100.00;100584.59;10450734;28;20041;-72
2023/03/12 15:57:22;;;;;;;30.45;7.30;;;;;;;10.39;100.00;100597.94;10464318;28;20504;-72
2023/03/12 16:02:36;;;;;;;24.08;8.23;;;;;;;10.29;100.00;100589.66;10435598;28;20098;-72
2023/03/12 16:07:37;;;;;;;18.40;6.80;;;;;;;10.13;100.00;100576.75;10379759;28;20042;-72
2023/03/12 16:12:37;;;;;;;24.90;7.95;;;;;;;10.14;100.00;100584.66;10401818;28;20045;-72
2023/03/12 16:17:37;;;;;;;24.02;7.88;;;;;;;10.08;100.00;100580.88;10430075;28;20553;-73
2023/03/12 16:22:38;;;;;;;33.70;10.40;;;;;;;10.03;100.00;100580.69;10431516;28;20046;-72
2023/03/12 16:27:45;;;;;;;30.30;9.43;;;;;;;9.94;100.00;100583.75;10435979;28;20102;-72
2023/03/12 16:32:45;;;;;;;21.85;6.38;;;;;;;9.92;100.00;100580.19;10469030;28;20029;-72
2023/03/12 16:37:46;;;;;;;27.30;9.35;;;;;;;9.88;100.00;100570.41;10438718;28;20029;-72
2023/03/12 16:42:51;;;;;;;22.40;8.55;;;;;;;9.74;100.00;100571.50;10445913;28;20049;-72
2023/03/12 16:47:58;;;;;;;29.02;8.63;;;;;;;9.70;100.00;100580.91;10409032;28;20083;-72
2023/03/12 16:52:58;;;;;;;40.47;9.50;;;;;;;9.58;100.00;100578.59;10447908;28;20044;-72
2023/03/12 16:57:59;;;;;;;21.75;7.88;;;;;;;9.59;100.00;100577.78;10434293;28;20045;-73
2023/03/12 17:03:00;;;;;;;24.92;9.90;;;;;;;9.51;100.00;100568.69;10429589;28;20388;-72
2023/03/12 17:08:01;;;;;;;23.50;7.63;;;;;;;9.37;100.00;100563.72;10427467;28;20073;-72
2023/03/12 17:13:01;;;;;;;22.23;9.55;;;;;;;9.27;100.00;100577.16;10412519;28;20269;-72
2023/03/12 17:18:03;;;;;;;23.40;8.63;;;;;;;9.25;100.00;100584.00;10440245;28;20029;-73
2023/03/12 17:23:04;;;;;;;23.48;6.88;;;;;;;9.31;100.00;100584.31;10440667;28;20500;-72
2023/03/12 17:28:04;;;;;;;24.98;6.63;;;;;;;9.29;100.00;100585.06;10440304;28;20037;-73
2023/03/12 17:33:07;;;;;;;20.45;7.00;;;;;;;9.27;100.00;100590.22;10462076;28;20068;-75
2023/03/12 17:38:07;;;;;;;30.85;6.88;;;;;;;9.24;100.00;100608.34;10461406;28;20141;-72
2023/03/12 17:43:08;;;;;;;30.25;10.45;;;;;;;9.30;100.00;100600.81;10447159;28;20163;-74
2023/03/12 17:48:09;;;;;;;22.65;7.28;;;;;;;9.32;100.00;100603.50;10433693;28;20456;-73
2023/03/12 17:53:09;;;;;;;18.65;5.97;;;;;;;9.30;100.00;100612.97;10472825;28;20056;-73
2023/03/12 17:58:10;;;;;;;17.70;6.38;;;;;;;9.27;100.00;100613.72;10402354;28;20144;-72
2023/03/12 18:03:10;;;;;;;19.30;7.70;;;;;;;9.18;100.00;100616.78;10400868;28;20046;-72
2023/03/12 18:08:11;;;;;;;25.58;7.45;;;;;;;9.17;100.00;100622.81;10457836;28;20124;-73
2023/03/12 18:13:11;;;;;;;21.88;7.82;;;;;;;9.23;100.00;100624.81;10429140;28;20116;-72
2023/03/12 18:18:12;;;;;;;19.75;7.03;;;;;;;9.23;100.00;100622.22;10432887;28;20123;-73
2023/03/12 18:23:12;;;;;;;21.60;7.78;;;;;;;9.11;100.00;100614.69;10425320;28;20174;-72
2023/03/12 18:28:14;;;;;;;26.67;10.98;;;;;;;8.97;100.00;100621.81;10420530;28;20040;-73
2023/03/12 18:33:14;;;;;;;21.77;7.33;;;;;;;8.94;100.00;100613.84;10435642;28;20042;-73
2023/03/12 18:38:15;;;;;;;21.30;8.27;;;;;;;8.96;100.00;100613.09;10433783;28;20052;-72
2023/03/12 18:43:15;;;;;;;23.05;8.07;;;;;;;9.05;100.00;100603.94;10426361;28;20408;-73
2023/03/12 18:48:16;;;;;;;29.77;8.73;;;;;;;9.00;100.00;100605.44;10451130;28;20129;-73
2023/03/12 18:53:17;;;;;;;27.13;8.63;;;;;;;8.95;100.00;100600.88;10383557;28;20171;-74
2023/03/12 18:58:17;;;;;;;30.38;8.48;;;;;;;8.92;100.00;100598.09;10435121;28;20515;-72
2023/03/12 19:03:18;;;;;;;16.52;7.18;;;;;;;9.03;100.00;100598.63;10437274;28;20042;-72
2023/03/12 19:08:19;;;;;;;25.80;8.68;;;;;;;9.01;100.00;100596.78;10459648;28;20075;-71
2023/03/12 19:13:20;;;;;;;15.07;4.83;;;;;;;8.92;100.00;100587.66;10431784;28;20091;-71
2023/03/12 19:18:20;;;;;;;14.07;5.22;;;;;;;8.86;100.00;100584.75;10408137;28;20037;-71
2023/03/12 19:23:21;;;;;;;19.70;7.57;;;;;;;8.84;100.00;100572.44;10422211;28;20064;-72
2023/03/12 19:28:21;;;;;;;26.67;9.45;;;;;;;8.80;100.00;100576.63;10434388;28;20508;-72
2023/03/12 19:33:22;;;;;;;27.73;9.18;;;;;;;8.64;100.00;100564.50;10419083;28;20042;-72
2023/03/12 19:38:22;;;;;;;18.00;6.25;;;;;;;8.46;100.00;100564.44;10421810;28;20116;-72
2023/03/12 19:43:23;;;;;;;30.40;9.43;;;;;;;8.33;100.00;100565.50;10431668;28;20131;-72
2023/03/12 19:48:27;;;;;;;20.65;8.00;;;;;;;8.18;100.00;100561.28;10444824;28;20534;-72
2023/03/12 19:53:27;;;;;;;31.95;8.60;;;;;;;8.13;100.00;100549.72;10415661;28;20539;-72
2023/03/12 19:58:28;;;;;;;32.67;9.13;;;;;;;8.11;100.00;100553.06;10424349;28;20132;-72
2023/03/12 20:03:29;;;;;;;22.10;7.93;;;;;;;7.98;100.00;100547.22;10432580;28;20041;-71
2023/03/12 20:08:29;;;;;;;23.75;9.85;;;;;;;8.11;100.00;100540.03;10456896;28;20034;-71
2023/03/12 20:13:29;;;;;;;16.90;6.38;;;;;;;8.08;100.00;100531.25;10454202;28;20067;-71
2023/03/12 20:18:30;;;;;;;34.95;10.60;;;;;;;7.85;100.00;100527.41;10430984;28;20135;-71
2023/03/12 20:23:31;;;;;;;20.65;6.88;;;;;;;7.91;100.00;100519.91;10412501;28;20090;-71
2023/03/12 20:28:32;;;;;;;23.67;7.30;;;;;;;7.90;100.00;100515.53;10387433;28;20042;-71
2023/03/12 20:33:32;;;;;;;31.40;9.32;;;;;;;7.89;100.00;100513.72;10436115;28;20025;-71
2023/03/12 20:38:33;;;;;;;29.88;7.97;;;;;;;7.89;100.00;100503.31;10444548;28;20091;-71
2023/03/12 20:43:33;;;;;;;27.55;9.65;;;;;;;7.77;100.00;100495.75;10444704;28;20453;-72
2023/03/12 20:48:34;;;;;;;28.70;10.38;;;;;;;7.74;100.00;100482.56;10442898;28;20060;-72
2023/03/12 20:53:34;;;;;;;28.08;9.52;;;;;;;7.72;100.00;100479.00;10459867;28;20507;-71
2023/03/12 20:58:35;;;;;;;20.98;8.82;;;;;;;7.79;100.00;100464.56;10480069;28;20500;-72
2023/03/12 21:03:35;;;;;;;23.38;9.57;;;;;;;7.92;100.00;100453.09;10456913;28;20032;-72
2023/03/12 21:08:36;;;;;;;25.20;8.77;;;;;;;7.94;100.00;100457.53;10460119;28;20499;-72
2023/03/12 21:13:36;;;;;;;21.58;8.85;;;;;;;8.02;100.00;100451.81;10442781;28;20055;-71
2023/03/12 21:18:36;;;;;;;23.27;7.20;;;;;;;8.16;100.00;100452.53;10421799;28;20057;-71
2023/03/12 21:23:37;;;;;;;21.77;6.90;;;;;;;8.17;100.00;100452.59;10426317;28;20119;-71
2023/03/12 21:28:38;;;;;;;24.35;8.10;;;;;;;8.21;100.00;100446.72;10440941;28;20060;-71
2023/03/12 21:33:38;;;;;;;15.32;7.00;;;;;;;8.27;100.00;100443.56;10477684;28;20515;-71
2023/03/12 21:38:39;;;;;;;23.02;7.75;;;;;;;8.31;100.00;100428.94;10401712;28;20037;-71
2023/03/12 21:43:39;;;;;;;17.23;5.78;;;;;;;8.28;100.00;100440.13;10466831;28;20099;-71
2023/03/12 21:48:42;;;;;;;16.88;7.60;;;;;;;8.27;100.00;100427.00;10481830;28;20484;-72
2023/03/12 21:53:43;;;;;;;26.40;8.77;;;;;;;8.40;100.00;100423.31;10470356;28;20426;-71
2023/03/12 21:58:43;;;;;;;18.15;5.78;;;;;;;8.46;100.00;100407.97;10441774;28;20110;-71
2023/03/12 22:03:44;;;;;;;23.15;6.63;;;;;;;8.43;100.00;100403.47;10429240;28;20035;-71
2023/03/12 22:08:46;;;;;;;15.23;5.82;;;;;;;8.51;100.00;100389.13;10411037;28;20051;-71
2023/03/12 22:13:47;;;;;;;27.65;6.95;;;;;;;8.58;100.00;100374.69;10440491;28;20380;-71
2023/03/12 22:18:47;;;;;;;16.77;6.10;;;;;;;8.59;100.00;100370.34;10446238;28;20044;-71
2023/03/12 22:23:52;;;;;;;27.35;7.90;;;;;;;8.65;100.00;100354.97;10445630;28;20129;-71
2023/03/12 22:28:54;;;;;;;11.88;4.72;;;;;;;8.66;100.00;100349.84;10468567;28;20150;-71
2023/03/12 22:33:55;;;;;;;15.10;5.30;;;;;;;8.78;100.00;100322.53;10480242;28;20044;-71
2023/03/12 22:38:56;;;;;;;17.90;7.28;;;;;;;8.69;100.00;100323.00;10477350;28;20048;-71
2023/03/12 22:44:02;;;;;;;24.95;8.40;;;;;;;8.65;100.00;100313.22;10425223;28;20148;-71
2023/03/12 22:49:03;;;;;;;19.73;7.35;;;;;;;8.75;100.00;100294.56;10447415;28;20045;-71
2023/03/12 22:54:04;;;;;;;17.40;6.95;;;;;;;8.83;100.00;100276.66;10449102;28;20076;-71